WZZ1432 EPWA-EPKT
Flight info
| Callsign | WZZ1432 |
|---|---|
| Flight time | 0h 31m |
| Altitude | 20000 |
| Route | EVINA M66 KUKAM |
| Aircraft | A20N/M-SDE2E3FGHIRWXY/LB1 |
Departure
| Time | 2026-05-05 10:35 |
|---|---|
| Airport | Warsaw Chopin Airport (EPWA) |
Arrival
| Time | 2026-05-05 11:06 |
|---|---|
| Airport | Katowice Wojciech Korfanty International Airport (EPKT) |
| Time | Latitude | Longitude | Altitude | Speed | Heading |
|---|---|---|---|---|---|
| 2026-05-05 10:24 | 52.16419 | 20.98239 | 385 ft | 0 kts | 24° |
| 2026-05-05 10:29 | 52.16406 | 20.98230 | 367 ft | 3 kts | 24° |
| 2026-05-05 10:29 | 52.16389 | 20.98217 | 362 ft | 3 kts | 24° |
| 2026-05-05 10:30 | 52.16372 | 20.98201 | 364 ft | 3 kts | 52° |
| 2026-05-05 10:30 | 52.16362 | 20.98174 | 363 ft | 3 kts | 81° |
| 2026-05-05 10:30 | 52.16362 | 20.98143 | 359 ft | 3 kts | 103° |
| 2026-05-05 10:30 | 52.16364 | 20.98133 | 359 ft | 0 kts | 118° |
| 2026-05-05 10:32 | 52.16363 | 20.98135 | 359 ft | 1 kts | 118° |
| 2026-05-05 10:32 | 52.16353 | 20.98154 | 363 ft | 7 kts | 134° |
| 2026-05-05 10:32 | 52.16287 | 20.98248 | 360 ft | 19 kts | 139° |
| 2026-05-05 10:32 | 52.16227 | 20.98323 | 362 ft | 3 kts | 144° |
| 2026-05-05 10:33 | 52.16226 | 20.98324 | 362 ft | 0 kts | 144° |
| 2026-05-05 10:33 | 52.16226 | 20.98325 | 362 ft | 0 kts | 144° |
| 2026-05-05 10:33 | 52.16226 | 20.98324 | 362 ft | 0 kts | 144° |
| 2026-05-05 10:33 | 52.16226 | 20.98325 | 362 ft | 0 kts | 144° |
| 2026-05-05 10:34 | 52.16207 | 20.98346 | 358 ft | 13 kts | 145° |
| 2026-05-05 10:34 | 52.16128 | 20.98383 | 355 ft | 11 kts | 217° |
| 2026-05-05 10:34 | 52.16130 | 20.98298 | 358 ft | 3 kts | 292° |
| 2026-05-05 10:34 | 52.16132 | 20.98288 | 356 ft | 0 kts | 292° |
| 2026-05-05 10:35 | 52.16242 | 20.97905 | 359 ft | 84 kts | 295° |
| 2026-05-05 10:35 | 52.16623 | 20.96542 | 381 ft | 178 kts | 294° |
| 2026-05-05 10:35 | 52.17209 | 20.94535 | 1008 ft | 206 kts | 294° |
| 2026-05-05 10:35 | 52.17842 | 20.92299 | 1865 ft | 235 kts | 291° |
| 2026-05-05 10:36 | 52.18172 | 20.89536 | 2494 ft | 265 kts | 264° |
| 2026-05-05 10:36 | 52.17846 | 20.86476 | 3516 ft | 280 kts | 255° |
| 2026-05-05 10:36 | 52.17372 | 20.83343 | 4685 ft | 292 kts | 254° |
| 2026-05-05 10:36 | 52.16856 | 20.79996 | 5430 ft | 318 kts | 254° |
| 2026-05-05 10:37 | 52.16343 | 20.76545 | 5782 ft | 303 kts | 255° |
| 2026-05-05 10:37 | 52.15881 | 20.73288 | 5846 ft | 290 kts | 254° |
| 2026-05-05 10:37 | 52.15082 | 20.70341 | 5861 ft | 285 kts | 230° |
| 2026-05-05 10:37 | 52.13639 | 20.68161 | 5854 ft | 284 kts | 218° |
| 2026-05-05 10:38 | 52.12048 | 20.66256 | 5866 ft | 284 kts | 216° |
| 2026-05-05 10:38 | 52.10440 | 20.64381 | 5862 ft | 284 kts | 216° |
| 2026-05-05 10:38 | 52.08845 | 20.62486 | 5857 ft | 285 kts | 216° |
| 2026-05-05 10:38 | 52.07259 | 20.60564 | 5852 ft | 285 kts | 217° |
| 2026-05-05 10:39 | 52.05677 | 20.58618 | 5865 ft | 285 kts | 217° |
| 2026-05-05 10:39 | 52.04105 | 20.56665 | 5871 ft | 284 kts | 217° |
| 2026-05-05 10:39 | 52.02526 | 20.54688 | 6381 ft | 290 kts | 217° |
| 2026-05-05 10:39 | 52.00914 | 20.52665 | 7584 ft | 292 kts | 218° |
| 2026-05-05 10:40 | 51.99309 | 20.50657 | 9130 ft | 292 kts | 218° |
| 2026-05-05 10:40 | 51.97694 | 20.48630 | 10496 ft | 295 kts | 218° |
| 2026-05-05 10:40 | 51.96043 | 20.46634 | 11776 ft | 298 kts | 215° |
| 2026-05-05 10:40 | 51.94211 | 20.45004 | 13027 ft | 304 kts | 204° |
| 2026-05-05 10:41 | 51.92146 | 20.44123 | 14205 ft | 312 kts | 192° |
| 2026-05-05 10:41 | 51.89959 | 20.43706 | 15240 ft | 321 kts | 188° |
| 2026-05-05 10:41 | 51.87705 | 20.43406 | 16237 ft | 329 kts | 187° |
| 2026-05-05 10:41 | 51.85400 | 20.43110 | 17263 ft | 336 kts | 187° |
| 2026-05-05 10:42 | 51.80676 | 20.42452 | 19044 ft | 349 kts | 187° |
| 2026-05-05 10:42 | 51.78253 | 20.42096 | 19588 ft | 351 kts | 187° |
| 2026-05-05 10:42 | 51.75811 | 20.41732 | 19827 ft | 353 kts | 187° |
| 2026-05-05 10:43 | 51.73359 | 20.41364 | 19861 ft | 355 kts | 187° |
| 2026-05-05 10:43 | 51.70896 | 20.40992 | 19861 ft | 356 kts | 187° |
| 2026-05-05 10:43 | 51.68426 | 20.40619 | 19861 ft | 357 kts | 187° |
| 2026-05-05 10:43 | 51.65954 | 20.40248 | 19862 ft | 357 kts | 187° |
| 2026-05-05 10:44 | 51.63484 | 20.39875 | 19861 ft | 357 kts | 187° |
| 2026-05-05 10:44 | 51.61007 | 20.39501 | 19866 ft | 357 kts | 187° |
| 2026-05-05 10:44 | 51.58532 | 20.39127 | 19862 ft | 357 kts | 187° |
| 2026-05-05 10:44 | 51.56053 | 20.38752 | 19865 ft | 357 kts | 187° |
| 2026-05-05 10:45 | 51.53580 | 20.38377 | 19864 ft | 357 kts | 187° |
| 2026-05-05 10:45 | 51.51100 | 20.38002 | 19864 ft | 357 kts | 187° |
| 2026-05-05 10:45 | 51.48625 | 20.37629 | 19866 ft | 357 kts | 187° |
| 2026-05-05 10:45 | 51.46149 | 20.37257 | 19869 ft | 357 kts | 187° |
| 2026-05-05 10:46 | 51.43672 | 20.36884 | 19866 ft | 357 kts | 187° |
| 2026-05-05 10:46 | 51.41196 | 20.36513 | 19868 ft | 357 kts | 187° |
| 2026-05-05 10:46 | 51.38736 | 20.36000 | 19868 ft | 356 kts | 193° |
| 2026-05-05 10:46 | 51.36328 | 20.35112 | 19868 ft | 355 kts | 197° |
| 2026-05-05 10:47 | 51.33958 | 20.34013 | 19869 ft | 354 kts | 199° |
| 2026-05-05 10:47 | 51.31613 | 20.32807 | 19872 ft | 354 kts | 200° |
| 2026-05-05 10:47 | 51.29274 | 20.31554 | 19869 ft | 354 kts | 200° |
| 2026-05-05 10:47 | 51.26948 | 20.30294 | 19868 ft | 354 kts | 200° |
| 2026-05-05 10:48 | 51.24642 | 20.29050 | 19872 ft | 354 kts | 200° |
| 2026-05-05 10:48 | 51.22310 | 20.27805 | 19870 ft | 353 kts | 200° |
| 2026-05-05 10:48 | 51.19977 | 20.26573 | 19872 ft | 353 kts | 200° |
| 2026-05-05 10:48 | 51.17647 | 20.25351 | 19869 ft | 353 kts | 200° |
| 2026-05-05 10:49 | 51.15311 | 20.24136 | 19874 ft | 353 kts | 200° |
| 2026-05-05 10:49 | 51.12980 | 20.22930 | 19876 ft | 352 kts | 200° |
| 2026-05-05 10:49 | 51.10645 | 20.21727 | 19876 ft | 352 kts | 200° |
| 2026-05-05 10:49 | 51.08312 | 20.20526 | 19873 ft | 352 kts | 200° |
| 2026-05-05 10:50 | 51.05983 | 20.19330 | 19876 ft | 352 kts | 200° |
| 2026-05-05 10:50 | 51.03651 | 20.18138 | 19875 ft | 352 kts | 200° |
| 2026-05-05 10:50 | 51.01317 | 20.16942 | 19875 ft | 352 kts | 200° |
| 2026-05-05 10:50 | 50.98987 | 20.15749 | 19873 ft | 352 kts | 200° |
| 2026-05-05 10:51 | 50.96657 | 20.14553 | 19880 ft | 352 kts | 200° |
| 2026-05-05 10:51 | 50.94329 | 20.13359 | 19872 ft | 351 kts | 200° |
| 2026-05-05 10:51 | 50.92005 | 20.12169 | 19876 ft | 352 kts | 200° |
| 2026-05-05 10:51 | 50.89674 | 20.10978 | 19875 ft | 351 kts | 200° |
| 2026-05-05 10:52 | 50.87351 | 20.09793 | 19873 ft | 351 kts | 199° |
| 2026-05-05 10:52 | 50.85026 | 20.08609 | 19700 ft | 349 kts | 199° |
| 2026-05-05 10:52 | 50.82778 | 20.07253 | 19098 ft | 344 kts | 209° |
| 2026-05-05 10:52 | 50.80845 | 20.05107 | 18526 ft | 338 kts | 224° |
| 2026-05-05 10:53 | 50.79395 | 20.02214 | 17918 ft | 334 kts | 238° |
| 2026-05-05 10:53 | 50.78267 | 19.99021 | 17287 ft | 331 kts | 242° |
| 2026-05-05 10:53 | 50.77225 | 19.95797 | 16656 ft | 327 kts | 242° |
| 2026-05-05 10:53 | 50.76219 | 19.92657 | 16044 ft | 323 kts | 242° |
| 2026-05-05 10:54 | 50.75203 | 19.89522 | 15464 ft | 319 kts | 242° |
| 2026-05-05 10:54 | 50.74175 | 19.86383 | 14862 ft | 315 kts | 241° |
| 2026-05-05 10:54 | 50.73183 | 19.83380 | 14299 ft | 312 kts | 241° |
| 2026-05-05 10:54 | 50.72181 | 19.80365 | 13748 ft | 308 kts | 241° |
| 2026-05-05 10:55 | 50.71185 | 19.77382 | 13120 ft | 305 kts | 240° |
| 2026-05-05 10:55 | 50.70198 | 19.74430 | 12481 ft | 304 kts | 240° |
| 2026-05-05 10:55 | 50.69213 | 19.71493 | 11838 ft | 302 kts | 240° |
| 2026-05-05 10:55 | 50.68219 | 19.68536 | 11155 ft | 301 kts | 240° |
| 2026-05-05 10:56 | 50.67239 | 19.65626 | 10521 ft | 300 kts | 240° |
| 2026-05-05 10:56 | 50.66275 | 19.62768 | 9905 ft | 298 kts | 240° |
| 2026-05-05 10:56 | 50.65298 | 19.59863 | 9241 ft | 295 kts | 240° |
| 2026-05-05 10:56 | 50.64350 | 19.57053 | 8556 ft | 294 kts | 240° |
| 2026-05-05 10:57 | 50.63380 | 19.54185 | 7923 ft | 291 kts | 240° |
| 2026-05-05 10:57 | 50.62442 | 19.51415 | 7319 ft | 290 kts | 239° |
| 2026-05-05 10:57 | 50.61491 | 19.48614 | 6741 ft | 289 kts | 239° |
| 2026-05-05 10:57 | 50.60546 | 19.45832 | 6142 ft | 287 kts | 239° |
| 2026-05-05 10:58 | 50.59602 | 19.43072 | 5536 ft | 286 kts | 239° |
| 2026-05-05 10:58 | 50.58666 | 19.40325 | 4941 ft | 283 kts | 239° |
| 2026-05-05 10:58 | 50.57735 | 19.37592 | 4294 ft | 282 kts | 239° |
| 2026-05-05 10:58 | 50.56810 | 19.34873 | 3944 ft | 282 kts | 238° |
| 2026-05-05 10:59 | 50.55890 | 19.32158 | 3859 ft | 280 kts | 238° |
| 2026-05-05 10:59 | 50.54979 | 19.29489 | 3857 ft | 270 kts | 238° |
| 2026-05-05 10:59 | 50.54116 | 19.26968 | 3835 ft | 251 kts | 238° |
| 2026-05-05 10:59 | 50.53269 | 19.24708 | 3910 ft | 230 kts | 230° |
| 2026-05-05 11:00 | 50.52346 | 19.22780 | 3900 ft | 215 kts | 225° |
| 2026-05-05 11:00 | 50.51254 | 19.21232 | 3750 ft | 207 kts | 219° |
| 2026-05-05 11:00 | 50.50222 | 19.19622 | 3270 ft | 217 kts | 225° |
| 2026-05-05 11:00 | 50.49116 | 19.17922 | 2458 ft | 226 kts | 217° |
| 2026-05-05 11:01 | 50.48065 | 19.16183 | 2060 ft | 205 kts | 232° |
| 2026-05-05 11:01 | 50.47549 | 19.14269 | 1800 ft | 185 kts | 255° |
| 2026-05-05 11:01 | 50.47433 | 19.12297 | 1358 ft | 174 kts | 265° |
| 2026-05-05 11:01 | 50.47443 | 19.10468 | 1190 ft | 167 kts | 268° |
| 2026-05-05 11:02 | 50.47443 | 19.08580 | 1144 ft | 171 kts | 268° |
| 2026-05-05 11:02 | 50.47468 | 19.06756 | 1338 ft | 166 kts | 266° |
| 2026-05-05 11:02 | 50.47337 | 19.04922 | 1476 ft | 184 kts | 249° |
| 2026-05-05 11:02 | 50.46959 | 19.02822 | 1822 ft | 216 kts | 256° |
| 2026-05-05 11:03 | 50.47255 | 19.00434 | 2124 ft | 250 kts | 309° |
| 2026-05-05 11:03 | 50.48766 | 18.98938 | 2411 ft | 265 kts | 327° |
| 2026-05-05 11:03 | 50.50377 | 18.97428 | 2569 ft | 274 kts | 326° |
| 2026-05-05 11:03 | 50.51886 | 18.95668 | 2828 ft | 265 kts | 300° |
| 2026-05-05 11:04 | 50.52071 | 18.93079 | 3623 ft | 232 kts | 250° |
| 2026-05-05 11:04 | 50.51094 | 18.91265 | 4482 ft | 216 kts | 205° |
| 2026-05-05 11:04 | 50.49663 | 18.91237 | 5263 ft | 213 kts | 160° |
| 2026-05-05 11:04 | 50.48589 | 18.92962 | 5388 ft | 246 kts | 126° |
| 2026-05-05 11:05 | 50.48027 | 18.95817 | 3963 ft | 295 kts | 104° |
| 2026-05-05 11:05 | 50.47779 | 18.99097 | 2475 ft | 303 kts | 97° |
| 2026-05-05 11:05 | 50.47672 | 19.02102 | 1574 ft | 246 kts | 95° |
| 2026-05-05 11:05 | 50.47651 | 19.04534 | 1160 ft | 206 kts | 93° |
| 2026-05-05 11:06 | 50.47608 | 19.06624 | 1049 ft | 175 kts | 92° |
| 2026-05-05 11:06 | 50.47625 | 19.08158 | 999 ft | 85 kts | 88° |
| 2026-05-05 11:06 | 50.47606 | 19.08585 | 1003 ft | 36 kts | 91° |
| 2026-05-05 11:06 | 50.47599 | 19.08939 | 1008 ft | 23 kts | 88° |
| 2026-05-05 11:07 | 50.47600 | 19.09108 | 1011 ft | 23 kts | 89° |
| 2026-05-05 11:07 | 50.47582 | 19.09349 | 1011 ft | 19 kts | 119° |
| 2026-05-05 11:07 | 50.47528 | 19.09393 | 1011 ft | 0 kts | 180° |
| 2026-05-05 11:08 | 50.47527 | 19.09393 | 1011 ft | 1 kts | 180° |
| 2026-05-05 11:08 | 50.47514 | 19.09393 | 1011 ft | 3 kts | 180° |
| 2026-05-05 11:08 | 50.47490 | 19.09392 | 1011 ft | 4 kts | 184° |
| 2026-05-05 11:09 | 50.47456 | 19.09377 | 1011 ft | 6 kts | 206° |
| 2026-05-05 11:09 | 50.47431 | 19.09331 | 1010 ft | 6 kts | 248° |
| 2026-05-05 11:09 | 50.47425 | 19.09262 | 1009 ft | 7 kts | 268° |
| 2026-05-05 11:09 | 50.47426 | 19.09173 | 1009 ft | 9 kts | 270° |
| 2026-05-05 11:10 | 50.47427 | 19.09058 | 1008 ft | 12 kts | 271° |
| 2026-05-05 11:10 | 50.47427 | 19.08918 | 1007 ft | 14 kts | 271° |
| 2026-05-05 11:10 | 50.47431 | 19.08754 | 1005 ft | 16 kts | 269° |
| 2026-05-05 11:10 | 50.47400 | 19.08596 | 1004 ft | 14 kts | 208° |
| 2026-05-05 11:11 | 50.47312 | 19.08588 | 1004 ft | 13 kts | 180° |
| 2026-05-05 11:11 | 50.47240 | 19.08533 | 1004 ft | 12 kts | 236° |
| 2026-05-05 11:11 | 50.47205 | 19.08406 | 1002 ft | 12 kts | 256° |
| 2026-05-05 11:11 | 50.47208 | 19.08285 | 1002 ft | 12 kts | 272° |
| 2026-05-05 11:12 | 50.47210 | 19.08141 | 1001 ft | 14 kts | 270° |
| 2026-05-05 11:12 | 50.47211 | 19.07971 | 1002 ft | 17 kts | 270° |
| 2026-05-05 11:12 | 50.47212 | 19.07777 | 997 ft | 19 kts | 273° |
| 2026-05-05 11:12 | 50.47204 | 19.07590 | 999 ft | 12 kts | 249° |
| 2026-05-05 11:13 | 50.47181 | 19.07545 | 996 ft | 4 kts | 228° |
| 2026-05-05 11:13 | 50.47172 | 19.07530 | 995 ft | 0 kts | 227° |